sensor_id;sensor_type;location;lat;lon;timestamp;temperature;humidity
46766;DHT22;32527;51.986;5.842;2022-07-05T00:00:35;14.40;99.90
46766;DHT22;32527;51.986;5.842;2022-07-05T00:08:10;14.30;99.90
46766;DHT22;32527;51.986;5.842;2022-07-05T00:10:38;14.30;99.90
46766;DHT22;32527;51.986;5.842;2022-07-05T00:15:39;14.10;99.90
46766;DHT22;32527;51.986;5.842;2022-07-05T00:18:07;14.20;99.90
46766;DHT22;32527;51.986;5.842;2022-07-05T00:20:42;14.10;99.90
46766;DHT22;32527;51.986;5.842;2022-07-05T00:27:02;14.00;99.90
46766;DHT22;32527;51.986;5.842;2022-07-05T00:30:19;13.80;99.90
46766;DHT22;32527;51.986;5.842;2022-07-05T00:33:32;13.70;99.90
46766;DHT22;32527;51.986;5.842;2022-07-05T00:37:42;13.60;99.90
46766;DHT22;32527;51.986;5.842;2022-07-05T00:41:31;13.70;99.90
46766;DHT22;32527;51.986;5.842;2022-07-05T00:44:55;13.70;99.90
46766;DHT22;32527;51.986;5.842;2022-07-05T00:48:48;12.60;99.90
46766;DHT22;32527;51.986;5.842;2022-07-05T00:52:38;13.60;99.90
46766;DHT22;32527;51.986;5.842;2022-07-05T00:55:59;13.50;99.90
46766;DHT22;32527;51.986;5.842;2022-07-05T00:59:49;13.60;99.90
46766;DHT22;32527;51.986;5.842;2022-07-05T01:03:54;13.40;99.90
46766;DHT22;32527;51.986;5.842;2022-07-05T01:09:38;13.50;99.90
46766;DHT22;32527;51.986;5.842;2022-07-05T01:12:06;13.50;99.90
46766;DHT22;32527;51.986;5.842;2022-07-05T01:14:45;13.50;99.90
46766;DHT22;32527;51.986;5.842;2022-07-05T01:17:40;13.40;99.90
46766;DHT22;32527;51.986;5.842;2022-07-05T01:20:53;13.40;99.90
46766;DHT22;32527;51.986;5.842;2022-07-05T01:23:41;13.30;99.90
46766;DHT22;32527;51.986;5.842;2022-07-05T01:26:38;13.30;99.90
46766;DHT22;32527;51.986;5.842;2022-07-05T01:30:11;13.30;99.90
46766;DHT22;32527;51.986;5.842;2022-07-05T01:35:40;13.20;99.90
46766;DHT22;32527;51.986;5.842;2022-07-05T01:38:18;13.20;99.90
46766;DHT22;32527;51.986;5.842;2022-07-05T01:40:48;13.20;99.90
46766;DHT22;32527;51.986;5.842;2022-07-05T01:43:21;13.30;99.90
46766;DHT22;32527;51.986;5.842;2022-07-05T01:45:49;13.20;99.90
46766;DHT22;32527;51.986;5.842;2022-07-05T01:48:20;13.20;99.90
46766;DHT22;32527;51.986;5.842;2022-07-05T01:50:53;13.20;99.90
46766;DHT22;32527;51.986;5.842;2022-07-05T01:53:31;13.30;99.90
46766;DHT22;32527;51.986;5.842;2022-07-05T01:56:02;13.30;99.90
46766;DHT22;32527;51.986;5.842;2022-07-05T01:58:32;13.20;99.90
46766;DHT22;32527;51.986;5.842;2022-07-05T02:01:09;13.30;99.90
46766;DHT22;32527;51.986;5.842;2022-07-05T02:03:40;13.30;99.90
46766;DHT22;32527;51.986;5.842;2022-07-05T02:06:26;13.20;99.90
46766;DHT22;32527;51.986;5.842;2022-07-05T02:09:02;13.20;99.90
46766;DHT22;32527;51.986;5.842;2022-07-05T02:11:32;13.10;99.90
46766;DHT22;32527;51.986;5.842;2022-07-05T02:14:03;13.10;99.90
46766;DHT22;32527;51.986;5.842;2022-07-05T02:16:41;13.00;99.90
46766;DHT22;32527;51.986;5.842;2022-07-05T02:19:28;13.10;99.90
46766;DHT22;32527;51.986;5.842;2022-07-05T02:27:28;13.00;99.90
46766;DHT22;32527;51.986;5.842;2022-07-05T02:30:05;13.00;99.90
46766;DHT22;32527;51.986;5.842;2022-07-05T02:40:18;13.30;99.90
46766;DHT22;32527;51.986;5.842;2022-07-05T02:42:53;13.30;99.90
46766;DHT22;32527;51.986;5.842;2022-07-05T02:45:20;13.30;99.90
46766;DHT22;32527;51.986;5.842;2022-07-05T02:50:22;12.90;99.90
46766;DHT22;32527;51.986;5.842;2022-07-05T02:53:07;13.70;99.90
46766;DHT22;32527;51.986;5.842;2022-07-05T02:59:37;13.70;99.90
46766;DHT22;32527;51.986;5.842;2022-07-05T03:02:12;13.80;99.90
46766;DHT22;32527;51.986;5.842;2022-07-05T03:04:46;13.70;99.90
46766;DHT22;32527;51.986;5.842;2022-07-05T03:09:51;13.80;99.90
46766;DHT22;32527;51.986;5.842;2022-07-05T03:12:18;14.00;99.90
46766;DHT22;32527;51.986;5.842;2022-07-05T03:19:59;13.80;99.90
46766;DHT22;32527;51.986;5.842;2022-07-05T03:22:34;13.90;99.90
46766;DHT22;32527;51.986;5.842;2022-07-05T03:25:11;13.80;99.90
46766;DHT22;32527;51.986;5.842;2022-07-05T03:27:47;13.80;99.90
46766;DHT22;32527;51.986;5.842;2022-07-05T03:30:43;13.90;99.90
46766;DHT22;32527;51.986;5.842;2022-07-05T03:33:13;13.50;99.90
46766;DHT22;32527;51.986;5.842;2022-07-05T03:36:07;18.50;99.90
46766;DHT22;32527;51.986;5.842;2022-07-05T03:38:55;14.00;99.90
46766;DHT22;32527;51.986;5.842;2022-07-05T03:42:31;14.60;99.90
46766;DHT22;32527;51.986;5.842;2022-07-05T03:45:31;14.60;99.90
46766;DHT22;32527;51.986;5.842;2022-07-05T03:48:57;14.20;99.90
46766;DHT22;32527;51.986;5.842;2022-07-05T03:52:22;14.20;99.90
46766;DHT22;32527;51.986;5.842;2022-07-05T03:55:09;14.20;99.90
46766;DHT22;32527;51.986;5.842;2022-07-05T04:15:27;14.30;99.90
46766;DHT22;32527;51.986;5.842;2022-07-05T04:21:03;14.50;99.90
46766;DHT22;32527;51.986;5.842;2022-07-05T04:24:07;14.70;99.90
46766;DHT22;32527;51.986;5.842;2022-07-05T04:26:49;14.70;99.90
46766;DHT22;32527;51.986;5.842;2022-07-05T04:29:30;14.70;99.90
46766;DHT22;32527;51.986;5.842;2022-07-05T04:32:33;14.70;99.90
46766;DHT22;32527;51.986;5.842;2022-07-05T04:35:29;14.70;99.90
46766;DHT22;32527;51.986;5.842;2022-07-05T04:41:37;14.70;99.90
46766;DHT22;32527;51.986;5.842;2022-07-05T04:44:18;14.70;99.90
46766;DHT22;32527;51.986;5.842;2022-07-05T04:47:31;14.80;99.90
46766;DHT22;32527;51.986;5.842;2022-07-05T04:50:26;14.60;99.90
46766;DHT22;32527;51.986;5.842;2022-07-05T04:53:13;14.90;99.90
46766;DHT22;32527;51.986;5.842;2022-07-05T04:56:14;14.80;99.90
46766;DHT22;32527;51.986;5.842;2022-07-05T05:02:06;15.00;99.90
46766;DHT22;32527;51.986;5.842;2022-07-05T05:04:41;15.10;99.90
46766;DHT22;32527;51.986;5.842;2022-07-05T05:08:13;16.60;99.90
46766;DHT22;32527;51.986;5.842;2022-07-05T05:13:17;15.20;99.90
46766;DHT22;32527;51.986;5.842;2022-07-05T05:16:07;15.20;99.90
46766;DHT22;32527;51.986;5.842;2022-07-05T05:18:38;15.20;99.90
46766;DHT22;32527;51.986;5.842;2022-07-05T05:21:32;16.70;99.90
46766;DHT22;32527;51.986;5.842;2022-07-05T05:24:40;15.30;99.90
46766;DHT22;32527;51.986;5.842;2022-07-05T05:28:00;15.50;99.90
46766;DHT22;32527;51.986;5.842;2022-07-05T05:31:13;15.60;99.90
46766;DHT22;32527;51.986;5.842;2022-07-05T05:42:41;15.90;99.90
46766;DHT22;32527;51.986;5.842;2022-07-05T05:49:48;16.10;99.90
46766;DHT22;32527;51.986;5.842;2022-07-05T05:54:44;16.20;99.90
46766;DHT22;32527;51.986;5.842;2022-07-05T05:57:22;16.70;99.90
46766;DHT22;32527;51.986;5.842;2022-07-05T05:59:57;16.40;99.90
46766;DHT22;32527;51.986;5.842;2022-07-05T06:05:12;16.60;99.90
46766;DHT22;32527;51.986;5.842;2022-07-05T06:08:02;16.60;99.90
46766;DHT22;32527;51.986;5.842;2022-07-05T06:10:38;15.30;99.90
46766;DHT22;32527;51.986;5.842;2022-07-05T06:13:25;16.80;99.90
46766;DHT22;32527;51.986;5.842;2022-07-05T06:16:04;16.90;99.90
46766;DHT22;32527;51.986;5.842;2022-07-05T06:18:43;15.80;99.90
46766;DHT22;32527;51.986;5.842;2022-07-05T06:21:15;16.90;99.90
46766;DHT22;32527;51.986;5.842;2022-07-05T06:23:52;19.20;99.90
46766;DHT22;32527;51.986;5.842;2022-07-05T06:26:40;17.50;99.90
46766;DHT22;32527;51.986;5.842;2022-07-05T06:31:49;18.00;99.90
46766;DHT22;32527;51.986;5.842;2022-07-05T06:34:31;16.60;99.90
46766;DHT22;32527;51.986;5.842;2022-07-05T06:37:13;18.00;99.90
46766;DHT22;32527;51.986;5.842;2022-07-05T06:39:43;16.50;99.90
46766;DHT22;32527;51.986;5.842;2022-07-05T06:42:27;18.50;99.90
46766;DHT22;32527;51.986;5.842;2022-07-05T06:45:23;19.70;99.90
46766;DHT22;32527;51.986;5.842;2022-07-05T06:48:37;19.70;99.90
46766;DHT22;32527;51.986;5.842;2022-07-05T06:51:22;20.50;99.90
46766;DHT22;32527;51.986;5.842;2022-07-05T06:53:50;21.50;99.90
46766;DHT22;32527;51.986;5.842;2022-07-05T06:56:32;21.90;99.90
46766;DHT22;32527;51.986;5.842;2022-07-05T06:59:18;23.60;99.90
46766;DHT22;32527;51.986;5.842;2022-07-05T07:01:47;22.10;99.90
46766;DHT22;32527;51.986;5.842;2022-07-05T07:04:39;22.30;99.30
46766;DHT22;32527;51.986;5.842;2022-07-05T07:07:26;22.30;98.30
46766;DHT22;32527;51.986;5.842;2022-07-05T07:10:26;23.00;99.10
46766;DHT22;32527;51.986;5.842;2022-07-05T07:12:59;24.50;97.60
46766;DHT22;32527;51.986;5.842;2022-07-05T07:15:29;23.60;96.80
46766;DHT22;32527;51.986;5.842;2022-07-05T07:18:04;23.70;96.50
46766;DHT22;32527;51.986;5.842;2022-07-05T07:20:37;23.80;94.70
46766;DHT22;32527;51.986;5.842;2022-07-05T07:23:07;23.50;94.60
46766;DHT22;32527;51.986;5.842;2022-07-05T07:25:37;23.50;95.30
46766;DHT22;32527;51.986;5.842;2022-07-05T07:28:12;23.50;94.20
46766;DHT22;32527;51.986;5.842;2022-07-05T07:30:46;24.00;94.00
46766;DHT22;32527;51.986;5.842;2022-07-05T07:33:24;25.50;92.40
46766;DHT22;32527;51.986;5.842;2022-07-05T07:35:53;25.00;90.00
46766;DHT22;32527;51.986;5.842;2022-07-05T07:38:28;25.30;90.80
46766;DHT22;32527;51.986;5.842;2022-07-05T07:41:08;23.00;92.50
46766;DHT22;32527;51.986;5.842;2022-07-05T07:43:40;22.10;95.50
46766;DHT22;32527;51.986;5.842;2022-07-05T07:46:12;22.00;97.10
46766;DHT22;32527;51.986;5.842;2022-07-05T07:48:47;22.10;96.90
46766;DHT22;32527;51.986;5.842;2022-07-05T07:51:14;21.20;96.80
46766;DHT22;32527;51.986;5.842;2022-07-05T07:53:47;22.20;96.70
46766;DHT22;32527;51.986;5.842;2022-07-05T07:56:18;22.20;97.10
46766;DHT22;32527;51.986;5.842;2022-07-05T07:58:54;22.30;95.80
46766;DHT22;32527;51.986;5.842;2022-07-05T08:01:28;21.90;95.20
46766;DHT22;32527;51.986;5.842;2022-07-05T08:03:55;22.20;96.00
46766;DHT22;32527;51.986;5.842;2022-07-05T08:06:30;21.80;95.50
46766;DHT22;32527;51.986;5.842;2022-07-05T08:09:00;21.50;95.80
46766;DHT22;32527;51.986;5.842;2022-07-05T08:11:29;22.20;96.80
46766;DHT22;32527;51.986;5.842;2022-07-05T08:13:56;21.60;97.90
46766;DHT22;32527;51.986;5.842;2022-07-05T08:16:32;21.50;97.50
46766;DHT22;32527;51.986;5.842;2022-07-05T08:19:02;21.20;98.40
46766;DHT22;32527;51.986;5.842;2022-07-05T08:21:56;23.40;99.10
46766;DHT22;32527;51.986;5.842;2022-07-05T08:24:43;21.10;99.20
46766;DHT22;32527;51.986;5.842;2022-07-05T08:27:25;21.10;97.60
46766;DHT22;32527;51.986;5.842;2022-07-05T08:30:00;21.20;98.20
46766;DHT22;32527;51.986;5.842;2022-07-05T08:35:00;21.10;98.90
46766;DHT22;32527;51.986;5.842;2022-07-05T08:37:29;21.00;99.90
46766;DHT22;32527;51.986;5.842;2022-07-05T08:40:06;21.10;99.90
46766;DHT22;32527;51.986;5.842;2022-07-05T08:45:02;19.70;99.20
46766;DHT22;32527;51.986;5.842;2022-07-05T08:47:34;22.50;98.80
46766;DHT22;32527;51.986;5.842;2022-07-05T08:50:06;21.60;95.50
46766;DHT22;32527;51.986;5.842;2022-07-05T08:52:52;21.50;96.10
46766;DHT22;32527;51.986;5.842;2022-07-05T08:55:27;21.60;94.50
46766;DHT22;32527;51.986;5.842;2022-07-05T08:58:12;21.50;96.60
46766;DHT22;32527;51.986;5.842;2022-07-05T09:00:42;20.10;96.60
46766;DHT22;32527;51.986;5.842;2022-07-05T09:03:09;21.20;97.10
46766;DHT22;32527;51.986;5.842;2022-07-05T09:05:44;21.90;97.90
46766;DHT22;32527;51.986;5.842;2022-07-05T09:08:14;22.70;97.80
46766;DHT22;32527;51.986;5.842;2022-07-05T09:10:44;23.20;94.30
46766;DHT22;32527;51.986;5.842;2022-07-05T09:13:20;23.60;91.50
46766;DHT22;32527;51.986;5.842;2022-07-05T09:15:48;23.10;92.40
46766;DHT22;32527;51.986;5.842;2022-07-05T09:18:47;22.90;92.20
46766;DHT22;32527;51.986;5.842;2022-07-05T09:21:22;23.00;91.70
46766;DHT22;32527;51.986;5.842;2022-07-05T09:26:36;22.70;93.10
46766;DHT22;32527;51.986;5.842;2022-07-05T09:29:08;22.60;92.50
46766;DHT22;32527;51.986;5.842;2022-07-05T09:31:46;22.60;92.30
46766;DHT22;32527;51.986;5.842;2022-07-05T09:34:29;22.60;92.30
46766;DHT22;32527;51.986;5.842;2022-07-05T09:36:57;22.20;93.20
46766;DHT22;32527;51.986;5.842;2022-07-05T09:39:39;21.80;93.80
46766;DHT22;32527;51.986;5.842;2022-07-05T09:42:11;23.30;97.10
46766;DHT22;32527;51.986;5.842;2022-07-05T09:44:45;20.70;98.40
46766;DHT22;32527;51.986;5.842;2022-07-05T09:47:18;20.60;99.90
46766;DHT22;32527;51.986;5.842;2022-07-05T09:49:52;20.40;99.90
46766;DHT22;32527;51.986;5.842;2022-07-05T09:52:35;20.30;99.90
46766;DHT22;32527;51.986;5.842;2022-07-05T09:57:29;19.00;99.90
46766;DHT22;32527;51.986;5.842;2022-07-05T10:00:10;20.80;99.90
46766;DHT22;32527;51.986;5.842;2022-07-05T10:02:51;21.20;99.90
46766;DHT22;32527;51.986;5.842;2022-07-05T10:05:22;21.50;99.90
46766;DHT22;32527;51.986;5.842;2022-07-05T10:07:53;21.80;99.10
46766;DHT22;32527;51.986;5.842;2022-07-05T10:10:25;21.90;99.50
46766;DHT22;32527;51.986;5.842;2022-07-05T10:13:03;22.70;96.80
46766;DHT22;32527;51.986;5.842;2022-07-05T10:15:37;24.70;94.30
46766;DHT22;32527;51.986;5.842;2022-07-05T10:18:11;23.80;93.50
46766;DHT22;32527;51.986;5.842;2022-07-05T10:23:10;22.70;97.20
46766;DHT22;32527;51.986;5.842;2022-07-05T10:25:41;21.70;96.30
46766;DHT22;32527;51.986;5.842;2022-07-05T10:28:11;23.30;96.00
46766;DHT22;32527;51.986;5.842;2022-07-05T10:30:41;26.60;92.70
46766;DHT22;32527;51.986;5.842;2022-07-05T10:33:14;27.30;86.40
46766;DHT22;32527;51.986;5.842;2022-07-05T10:35:50;27.20;86.30
46766;DHT22;32527;51.986;5.842;2022-07-05T10:38:23;24.40;76.00
46766;DHT22;32527;51.986;5.842;2022-07-05T10:41:19;26.30;73.60
46766;DHT22;32527;51.986;5.842;2022-07-05T10:43:59;25.00;68.10
46766;DHT22;32527;51.986;5.842;2022-07-05T10:46:38;28.00;67.40
46766;DHT22;32527;51.986;5.842;2022-07-05T10:49:16;27.30;65.00
46766;DHT22;32527;51.986;5.842;2022-07-05T10:52:06;27.60;64.10
46766;DHT22;32527;51.986;5.842;2022-07-05T10:57:45;26.90;64.30
46766;DHT22;32527;51.986;5.842;2022-07-05T11:00:32;26.40;63.60
46766;DHT22;32527;51.986;5.842;2022-07-05T11:06:04;26.10;64.90
46766;DHT22;32527;51.986;5.842;2022-07-05T11:12:00;26.20;63.00
46766;DHT22;32527;51.986;5.842;2022-07-05T11:17:14;25.00;66.70
46766;DHT22;32527;51.986;5.842;2022-07-05T11:20:11;24.80;67.00
46766;DHT22;32527;51.986;5.842;2022-07-05T11:23:14;25.10;66.60
46766;DHT22;32527;51.986;5.842;2022-07-05T11:25:39;24.90;62.00
46766;DHT22;32527;51.986;5.842;2022-07-05T11:28:40;26.20;62.50
46766;DHT22;32527;51.986;5.842;2022-07-05T11:31:38;26.90;60.40
46766;DHT22;32527;51.986;5.842;2022-07-05T11:34:14;27.10;58.70
46766;DHT22;32527;51.986;5.842;2022-07-05T11:37:20;26.60;58.80
46766;DHT22;32527;51.986;5.842;2022-07-05T11:42:36;26.40;57.30
46766;DHT22;32527;51.986;5.842;2022-07-05T11:45:05;26.60;59.00
46766;DHT22;32527;51.986;5.842;2022-07-05T11:47:35;28.00;54.80
46766;DHT22;32527;51.986;5.842;2022-07-05T11:50:04;27.40;54.70
46766;DHT22;32527;51.986;5.842;2022-07-05T11:52:33;27.10;55.60
46766;DHT22;32527;51.986;5.842;2022-07-05T11:55:07;26.20;56.10
46766;DHT22;32527;51.986;5.842;2022-07-05T11:57:47;24.60;54.20
46766;DHT22;32527;51.986;5.842;2022-07-05T12:00:32;25.60;56.70
46766;DHT22;32527;51.986;5.842;2022-07-05T12:03:11;24.80;59.60
46766;DHT22;32527;51.986;5.842;2022-07-05T12:05:38;24.60;62.40
46766;DHT22;32527;51.986;5.842;2022-07-05T12:08:06;24.50;60.40
46766;DHT22;32527;51.986;5.842;2022-07-05T12:10:33;24.80;58.60
46766;DHT22;32527;51.986;5.842;2022-07-05T12:13:21;24.80;59.50
46766;DHT22;32527;51.986;5.842;2022-07-05T12:15:52;24.40;62.20
46766;DHT22;32527;51.986;5.842;2022-07-05T12:18:29;25.30;61.10
46766;DHT22;32527;51.986;5.842;2022-07-05T12:21:11;25.50;60.70
46766;DHT22;32527;51.986;5.842;2022-07-05T12:23:44;25.00;60.30
46766;DHT22;32527;51.986;5.842;2022-07-05T12:26:15;25.10;59.50
46766;DHT22;32527;51.986;5.842;2022-07-05T12:28:45;23.20;60.10
46766;DHT22;32527;51.986;5.842;2022-07-05T12:33:45;24.60;61.40
46766;DHT22;32527;51.986;5.842;2022-07-05T12:36:16;23.40;60.00
46766;DHT22;32527;51.986;5.842;2022-07-05T12:38:43;24.60;61.80
46766;DHT22;32527;51.986;5.842;2022-07-05T12:41:20;24.50;59.90
46766;DHT22;32527;51.986;5.842;2022-07-05T12:43:51;24.70;60.20
46766;DHT22;32527;51.986;5.842;2022-07-05T12:46:35;24.60;60.50
46766;DHT22;32527;51.986;5.842;2022-07-05T12:49:11;24.70;62.10
46766;DHT22;32527;51.986;5.842;2022-07-05T12:51:51;24.50;62.60
46766;DHT22;32527;51.986;5.842;2022-07-05T12:54:26;25.60;63.40
46766;DHT22;32527;51.986;5.842;2022-07-05T12:57:15;24.30;63.20
46766;DHT22;32527;51.986;5.842;2022-07-05T13:00:08;25.00;62.60
46766;DHT22;32527;51.986;5.842;2022-07-05T13:02:47;24.70;60.10
46766;DHT22;32527;51.986;5.842;2022-07-05T13:06:00;22.50;60.40
46766;DHT22;32527;51.986;5.842;2022-07-05T13:08:38;24.30;62.30
46766;DHT22;32527;51.986;5.842;2022-07-05T13:11:33;24.20;63.00
46766;DHT22;32527;51.986;5.842;2022-07-05T13:14:13;24.20;63.10
46766;DHT22;32527;51.986;5.842;2022-07-05T13:16:42;23.80;62.60
46766;DHT22;32527;51.986;5.842;2022-07-05T13:19:11;23.70;64.20
46766;DHT22;32527;51.986;5.842;2022-07-05T13:21:41;22.60;64.70
46766;DHT22;32527;51.986;5.842;2022-07-05T13:24:12;23.70;64.20
46766;DHT22;32527;51.986;5.842;2022-07-05T13:26:51;22.90;61.90
46766;DHT22;32527;51.986;5.842;2022-07-05T13:29:36;26.30;62.90
46766;DHT22;32527;51.986;5.842;2022-07-05T13:32:18;24.80;62.10
46766;DHT22;32527;51.986;5.842;2022-07-05T13:35:02;26.00;61.70
46766;DHT22;32527;51.986;5.842;2022-07-05T13:37:51;25.10;60.00
46766;DHT22;32527;51.986;5.842;2022-07-05T13:40:39;24.70;59.60
46766;DHT22;32527;51.986;5.842;2022-07-05T13:43:34;24.10;59.10
46766;DHT22;32527;51.986;5.842;2022-07-05T13:47:28;25.00;58.00
46766;DHT22;32527;51.986;5.842;2022-07-05T13:51:03;25.10;58.70
46766;DHT22;32527;51.986;5.842;2022-07-05T13:54:34;24.70;57.40
46766;DHT22;32527;51.986;5.842;2022-07-05T13:57:37;24.10;58.90
46766;DHT22;32527;51.986;5.842;2022-07-05T14:00:08;23.80;61.60
46766;DHT22;32527;51.986;5.842;2022-07-05T14:02:46;22.40;60.50
46766;DHT22;32527;51.986;5.842;2022-07-05T14:05:14;23.70;61.60
46766;DHT22;32527;51.986;5.842;2022-07-05T14:07:47;23.80;60.20
46766;DHT22;32527;51.986;5.842;2022-07-05T14:10:20;23.80;60.90
46766;DHT22;32527;51.986;5.842;2022-07-05T14:12:50;24.00;62.40
46766;DHT22;32527;51.986;5.842;2022-07-05T14:15:22;22.50;60.40
46766;DHT22;32527;51.986;5.842;2022-07-05T14:18:02;23.50;60.50
46766;DHT22;32527;51.986;5.842;2022-07-05T14:20:29;23.50;61.80
46766;DHT22;32527;51.986;5.842;2022-07-05T14:22:56;23.20;60.00
46766;DHT22;32527;51.986;5.842;2022-07-05T14:25:32;22.50;61.20
46766;DHT22;32527;51.986;5.842;2022-07-05T14:28:02;23.30;61.90
46766;DHT22;32527;51.986;5.842;2022-07-05T14:30:54;23.00;62.00
46766;DHT22;32527;51.986;5.842;2022-07-05T14:33:26;23.70;58.30
46766;DHT22;32527;51.986;5.842;2022-07-05T14:35:55;23.50;59.10
46766;DHT22;32527;51.986;5.842;2022-07-05T14:38:22;24.00;60.50
46766;DHT22;32527;51.986;5.842;2022-07-05T14:40:52;23.60;61.20
46766;DHT22;32527;51.986;5.842;2022-07-05T14:43:19;23.40;60.40
46766;DHT22;32527;51.986;5.842;2022-07-05T14:45:46;23.20;62.00
46766;DHT22;32527;51.986;5.842;2022-07-05T14:48:17;23.60;62.40
46766;DHT22;32527;51.986;5.842;2022-07-05T14:50:46;23.40;59.80
46766;DHT22;32527;51.986;5.842;2022-07-05T14:53:17;23.40;60.90
46766;DHT22;32527;51.986;5.842;2022-07-05T14:55:54;23.30;59.00
46766;DHT22;32527;51.986;5.842;2022-07-05T14:58:33;23.00;59.70
46766;DHT22;32527;51.986;5.842;2022-07-05T15:01:01;23.10;61.30
46766;DHT22;32527;51.986;5.842;2022-07-05T15:03:31;23.00;60.80
46766;DHT22;32527;51.986;5.842;2022-07-05T15:06:01;21.30;61.40
46766;DHT22;32527;51.986;5.842;2022-07-05T15:10:58;22.60;59.90
46766;DHT22;32527;51.986;5.842;2022-07-05T15:13:44;22.50;60.20
46766;DHT22;32527;51.986;5.842;2022-07-05T15:16:37;22.50;61.70
46766;DHT22;32527;51.986;5.842;2022-07-05T15:19:15;23.20;63.10
46766;DHT22;32527;51.986;5.842;2022-07-05T15:21:47;21.40;60.90
46766;DHT22;32527;51.986;5.842;2022-07-05T15:26:47;22.20;59.10
46766;DHT22;32527;51.986;5.842;2022-07-05T15:31:47;22.10;59.10
46766;DHT22;32527;51.986;5.842;2022-07-05T15:34:36;22.00;59.30
46766;DHT22;32527;51.986;5.842;2022-07-05T15:40:30;21.60;61.80
46766;DHT22;32527;51.986;5.842;2022-07-05T15:47:54;21.40;61.60
46766;DHT22;32527;51.986;5.842;2022-07-05T15:50:25;21.40;62.00
46766;DHT22;32527;51.986;5.842;2022-07-05T15:55:30;21.20;62.50
46766;DHT22;32527;51.986;5.842;2022-07-05T15:58:05;20.50;61.60
46766;DHT22;32527;51.986;5.842;2022-07-05T16:03:02;21.20;62.30
46766;DHT22;32527;51.986;5.842;2022-07-05T16:08:00;21.10;63.60
46766;DHT22;32527;51.986;5.842;2022-07-05T16:13:16;20.90;63.30
46766;DHT22;32527;51.986;5.842;2022-07-05T16:19:40;21.20;64.20
46766;DHT22;32527;51.986;5.842;2022-07-05T16:26:01;21.10;64.40
46766;DHT22;32527;51.986;5.842;2022-07-05T16:29:11;21.20;65.80
46766;DHT22;32527;51.986;5.842;2022-07-05T16:31:54;21.20;64.10
46766;DHT22;32527;51.986;5.842;2022-07-05T16:34:43;22.80;65.90
46766;DHT22;32527;51.986;5.842;2022-07-05T16:37:21;21.20;64.10
46766;DHT22;32527;51.986;5.842;2022-07-05T16:40:09;21.30;65.40
46766;DHT22;32527;51.986;5.842;2022-07-05T16:45:03;21.30;67.30
46766;DHT22;32527;51.986;5.842;2022-07-05T16:47:36;20.60;67.80
46766;DHT22;32527;51.986;5.842;2022-07-05T16:50:04;20.90;71.00
46766;DHT22;32527;51.986;5.842;2022-07-05T16:52:38;20.70;72.00
46766;DHT22;32527;51.986;5.842;2022-07-05T17:01:03;21.20;78.80
46766;DHT22;32527;51.986;5.842;2022-07-05T17:03:34;21.10;79.50
46766;DHT22;32527;51.986;5.842;2022-07-05T17:08:32;22.10;75.60
46766;DHT22;32527;51.986;5.842;2022-07-05T17:11:01;23.00;73.50
46766;DHT22;32527;51.986;5.842;2022-07-05T17:13:28;24.00;67.00
46766;DHT22;32527;51.986;5.842;2022-07-05T17:15:54;24.80;67.80
46766;DHT22;32527;51.986;5.842;2022-07-05T17:18:24;25.60;61.90
46766;DHT22;32527;51.986;5.842;2022-07-05T17:21:04;25.60;61.90
46766;DHT22;32527;51.986;5.842;2022-07-05T17:24:10;25.70;61.50
46766;DHT22;32527;51.986;5.842;2022-07-05T17:27:00;26.10;58.40
46766;DHT22;32527;51.986;5.842;2022-07-05T17:29:54;26.00;59.50
46766;DHT22;32527;51.986;5.842;2022-07-05T17:32:21;24.60;60.80
46766;DHT22;32527;51.986;5.842;2022-07-05T17:34:48;21.60;65.70
46766;DHT22;32527;51.986;5.842;2022-07-05T17:37:28;20.90;72.00
46766;DHT22;32527;51.986;5.842;2022-07-05T17:40:01;20.80;72.50
46766;DHT22;32527;51.986;5.842;2022-07-05T17:42:42;20.40;78.00
46766;DHT22;32527;51.986;5.842;2022-07-05T17:50:37;19.10;93.20
46766;DHT22;32527;51.986;5.842;2022-07-05T17:58:22;19.70;95.50
46766;DHT22;32527;51.986;5.842;2022-07-05T18:00:49;18.80;96.10
46766;DHT22;32527;51.986;5.842;2022-07-05T18:03:15;18.90;94.10
46766;DHT22;32527;51.986;5.842;2022-07-05T18:05:41;19.00;94.00
46766;DHT22;32527;51.986;5.842;2022-07-05T18:08:07;18.90;95.20
46766;DHT22;32527;51.986;5.842;2022-07-05T18:10:33;18.80;96.00
46766;DHT22;32527;51.986;5.842;2022-07-05T18:12:58;18.60;97.00
46766;DHT22;32527;51.986;5.842;2022-07-05T18:15:24;18.60;97.30
46766;DHT22;32527;51.986;5.842;2022-07-05T18:17:50;18.40;97.20
46766;DHT22;32527;51.986;5.842;2022-07-05T18:20:16;18.40;97.50
46766;DHT22;32527;51.986;5.842;2022-07-05T18:22:42;18.30;98.50
46766;DHT22;32527;51.986;5.842;2022-07-05T18:25:08;18.30;99.70
46766;DHT22;32527;51.986;5.842;2022-07-05T18:27:33;18.20;97.60
46766;DHT22;32527;51.986;5.842;2022-07-05T18:29:59;18.10;99.40
46766;DHT22;32527;51.986;5.842;2022-07-05T18:32:25;19.10;98.80
46766;DHT22;32527;51.986;5.842;2022-07-05T18:34:50;18.00;97.20
46766;DHT22;32527;51.986;5.842;2022-07-05T18:37:16;17.90;98.10
46766;DHT22;32527;51.986;5.842;2022-07-05T18:39:42;17.80;97.90
46766;DHT22;32527;51.986;5.842;2022-07-05T18:42:07;17.80;98.80
46766;DHT22;32527;51.986;5.842;2022-07-05T18:44:34;17.70;97.80
46766;DHT22;32527;51.986;5.842;2022-07-05T18:46:59;17.50;98.80
46766;DHT22;32527;51.986;5.842;2022-07-05T18:49:25;17.50;99.00
46766;DHT22;32527;51.986;5.842;2022-07-05T18:51:50;17.50;98.70
46766;DHT22;32527;51.986;5.842;2022-07-05T18:54:16;17.50;98.50
46766;DHT22;32527;51.986;5.842;2022-07-05T18:56:41;17.40;98.60
46766;DHT22;32527;51.986;5.842;2022-07-05T18:59:07;17.40;99.50
46766;DHT22;32527;51.986;5.842;2022-07-05T19:01:33;17.30;99.90
46766;DHT22;32527;51.986;5.842;2022-07-05T19:03:58;17.30;99.70
46766;DHT22;32527;51.986;5.842;2022-07-05T19:06:25;17.10;99.80
46766;DHT22;32527;51.986;5.842;2022-07-05T19:09:11;17.00;99.90
46766;DHT22;32527;51.986;5.842;2022-07-05T19:11:56;17.00;99.90
46766;DHT22;32527;51.986;5.842;2022-07-05T19:14:40;17.00;99.90
46766;DHT22;32527;51.986;5.842;2022-07-05T19:17:06;16.90;99.90
46766;DHT22;32527;51.986;5.842;2022-07-05T19:19:32;16.80;99.90
46766;DHT22;32527;51.986;5.842;2022-07-05T19:21:57;16.80;99.90
46766;DHT22;32527;51.986;5.842;2022-07-05T19:24:23;16.70;99.90
46766;DHT22;32527;51.986;5.842;2022-07-05T19:26:49;16.70;99.90
46766;DHT22;32527;51.986;5.842;2022-07-05T19:29:14;16.60;99.90
46766;DHT22;32527;51.986;5.842;2022-07-05T19:31:40;16.60;99.90
46766;DHT22;32527;51.986;5.842;2022-07-05T19:34:06;16.50;99.90
46766;DHT22;32527;51.986;5.842;2022-07-05T19:36:31;16.40;99.90
46766;DHT22;32527;51.986;5.842;2022-07-05T19:38:57;16.40;99.90
46766;DHT22;32527;51.986;5.842;2022-07-05T19:41:22;16.30;99.90
46766;DHT22;32527;51.986;5.842;2022-07-05T19:43:48;16.20;99.90
46766;DHT22;32527;51.986;5.842;2022-07-05T19:46:14;16.10;99.90